sensor_id;sensor_type;location;lat;lon;timestamp;pressure;altitude;pressure_sealevel;temperature;humidity
53619;BME280;68717;53.040;18.488;2023-12-29T00:00:07;100745.00;;;6.71;100.00
53619;BME280;68717;53.040;18.488;2023-12-29T00:00:21;100738.72;;;6.72;100.00
53619;BME280;68717;53.040;18.488;2023-12-29T00:00:54;100737.03;;;6.71;100.00
53619;BME280;68717;53.040;18.488;2023-12-29T00:01:23;100740.63;;;6.70;100.00
53619;BME280;68717;53.040;18.488;2023-12-29T00:01:36;100736.16;;;6.71;100.00
53619;BME280;68717;53.040;18.488;2023-12-29T00:01:49;100736.16;;;6.71;100.00
53619;BME280;68717;53.040;18.488;2023-12-29T00:02:03;100739.78;;;6.70;100.00
53619;BME280;68717;53.040;18.488;2023-12-29T00:02:16;100741.59;;;6.69;100.00
53619;BME280;68717;53.040;18.488;2023-12-29T00:02:29;100738.94;;;6.69;100.00
53619;BME280;68717;53.040;18.488;2023-12-29T00:02:42;100732.75;;;6.69;100.00
53619;BME280;68717;53.040;18.488;2023-12-29T00:02:55;100743.41;;;6.69;100.00
53619;BME280;68717;53.040;18.488;2023-12-29T00:03:09;100735.44;;;6.69;100.00
53619;BME280;68717;53.040;18.488;2023-12-29T00:03:22;100737.25;;;6.68;100.00
53619;BME280;68717;53.040;18.488;2023-12-29T00:03:37;100734.69;;;6.67;100.00
53619;BME280;68717;53.040;18.488;2023-12-29T00:03:50;100740.84;;;6.67;100.00
53619;BME280;68717;53.040;18.488;2023-12-29T00:04:03;100738.19;;;6.67;100.00
53619;BME280;68717;53.040;18.488;2023-12-29T00:04:16;100733.84;;;6.66;100.00
53619;BME280;68717;53.040;18.488;2023-12-29T00:04:29;100735.53;;;6.67;100.00
53619;BME280;68717;53.040;18.488;2023-12-29T00:04:42;100734.78;;;6.65;100.00
53619;BME280;68717;53.040;18.488;2023-12-29T00:04:56;100736.50;;;6.66;100.00
53619;BME280;68717;53.040;18.488;2023-12-29T00:05:09;100733.94;;;6.65;100.00
53619;BME280;68717;53.040;18.488;2023-12-29T00:05:22;100732.13;;;6.65;100.00
53619;BME280;68717;53.040;18.488;2023-12-29T00:05:36;100729.44;;;6.65;100.00
53619;BME280;68717;53.040;18.488;2023-12-29T00:05:49;100737.44;;;6.65;100.00
53619;BME280;68717;53.040;18.488;2023-12-29T00:06:02;100731.28;;;6.65;100.00
53619;BME280;68717;53.040;18.488;2023-12-29T00:06:15;100737.44;;;6.65;100.00
53619;BME280;68717;53.040;18.488;2023-12-29T00:06:28;100735.75;;;6.64;100.00
53619;BME280;68717;53.040;18.488;2023-12-29T00:06:41;100733.09;;;6.64;100.00
53619;BME280;68717;53.040;18.488;2023-12-29T00:06:58;100724.22;;;6.64;100.00
53619;BME280;68717;53.040;18.488;2023-12-29T00:07:15;100732.13;;;6.65;100.00
53619;BME280;68717;53.040;18.488;2023-12-29T00:07:32;100735.75;;;6.64;100.00
53619;BME280;68717;53.040;18.488;2023-12-29T00:07:45;100732.13;;;6.65;100.00
53619;BME280;68717;53.040;18.488;2023-12-29T00:07:58;100738.41;;;6.64;100.00
53619;BME280;68717;53.040;18.488;2023-12-29T00:08:11;100721.56;;;6.64;100.00
53619;BME280;68717;53.040;18.488;2023-12-29T00:08:25;100733.94;;;6.65;100.00
53619;BME280;68717;53.040;18.488;2023-12-29T00:08:38;100730.44;;;6.64;100.00
53619;BME280;68717;53.040;18.488;2023-12-29T00:08:51;100722.44;;;6.64;100.00
53619;BME280;68717;53.040;18.488;2023-12-29T00:09:04;100730.44;;;6.64;100.00
53619;BME280;68717;53.040;18.488;2023-12-29T00:09:17;100733.09;;;6.64;100.00
53619;BME280;68717;53.040;18.488;2023-12-29T00:09:32;100730.44;;;6.64;100.00
53619;BME280;68717;53.040;18.488;2023-12-29T00:09:51;100728.69;;;6.63;100.00
53619;BME280;68717;53.040;18.488;2023-12-29T00:10:05;100731.38;;;6.63;100.00
53619;BME280;68717;53.040;18.488;2023-12-29T00:10:18;100727.84;;;6.63;100.00
53619;BME280;68717;53.040;18.488;2023-12-29T00:10:31;100731.38;;;6.63;100.00
53619;BME280;68717;53.040;18.488;2023-12-29T00:10:45;100728.69;;;6.63;100.00
53619;BME280;68717;53.040;18.488;2023-12-29T00:10:59;100728.69;;;6.63;100.00
53619;BME280;68717;53.040;18.488;2023-12-29T00:11:17;100729.53;;;6.64;100.00
53619;BME280;68717;53.040;18.488;2023-12-29T00:11:30;100735.84;;;6.63;100.00
53619;BME280;68717;53.040;18.488;2023-12-29T00:11:43;100726.03;;;6.63;100.00
53619;BME280;68717;53.040;18.488;2023-12-29T00:11:56;100729.69;;;6.62;100.00
53619;BME280;68717;53.040;18.488;2023-12-29T00:12:09;100732.34;;;6.62;100.00
53619;BME280;68717;53.040;18.488;2023-12-29T00:12:22;100730.63;;;6.61;100.00
53619;BME280;68717;53.040;18.488;2023-12-29T00:12:35;100730.63;;;6.61;100.00
53619;BME280;68717;53.040;18.488;2023-12-29T00:12:49;100724.44;;;6.61;100.00
53619;BME280;68717;53.040;18.488;2023-12-29T00:13:02;100727.97;;;6.61;100.00
53619;BME280;68717;53.040;18.488;2023-12-29T00:13:15;100726.28;;;6.60;100.00
53619;BME280;68717;53.040;18.488;2023-12-29T00:13:32;100730.75;;;6.60;100.00
53619;BME280;68717;53.040;18.488;2023-12-29T00:13:45;100720.94;;;6.60;100.00
53619;BME280;68717;53.040;18.488;2023-12-29T00:13:58;100727.22;;;6.59;100.00
53619;BME280;68717;53.040;18.488;2023-12-29T00:14:11;100725.41;;;6.60;100.00
53619;BME280;68717;53.040;18.488;2023-12-29T00:14:24;100721.88;;;6.59;100.00
53619;BME280;68717;53.040;18.488;2023-12-29T00:14:39;100725.53;;;6.58;100.00
53619;BME280;68717;53.040;18.488;2023-12-29T00:14:53;100734.34;;;6.59;100.00
53619;BME280;68717;53.040;18.488;2023-12-29T00:15:08;100727.34;;;6.57;100.00
53619;BME280;68717;53.040;18.488;2023-12-29T00:15:21;100730.84;;;6.58;100.00
53619;BME280;68717;53.040;18.488;2023-12-29T00:15:34;100730.84;;;6.58;100.00
53619;BME280;68717;53.040;18.488;2023-12-29T00:15:47;100737.03;;;6.59;100.00
53619;BME280;68717;53.040;18.488;2023-12-29T00:16:03;100725.53;;;6.58;100.00
53619;BME280;68717;53.040;18.488;2023-12-29T00:16:18;100729.03;;;6.59;100.00
53619;BME280;68717;53.040;18.488;2023-12-29T00:16:31;100728.19;;;6.58;100.00
53619;BME280;68717;53.040;18.488;2023-12-29T00:16:44;100730.00;;;6.57;100.00
53619;BME280;68717;53.040;18.488;2023-12-29T00:16:57;100729.13;;;6.57;100.00
53619;BME280;68717;53.040;18.488;2023-12-29T00:17:12;100726.47;;;6.57;100.00
53619;BME280;68717;53.040;18.488;2023-12-29T00:17:25;100729.13;;;6.57;100.00
53619;BME280;68717;53.040;18.488;2023-12-29T00:17:38;100727.44;;;6.56;100.00
53619;BME280;68717;53.040;18.488;2023-12-29T00:17:53;100724.78;;;6.56;100.00
53619;BME280;68717;53.040;18.488;2023-12-29T00:18:06;100722.13;;;6.56;100.00
53619;BME280;68717;53.040;18.488;2023-12-29T00:18:19;100728.38;;;6.55;100.00
53619;BME280;68717;53.040;18.488;2023-12-29T00:18:33;100724.88;;;6.54;100.00
53619;BME280;68717;53.040;18.488;2023-12-29T00:18:48;100726.59;;;6.55;100.00
53619;BME280;68717;53.040;18.488;2023-12-29T00:19:02;100728.50;;;6.53;100.00
53619;BME280;68717;53.040;18.488;2023-12-29T00:19:15;100725.84;;;6.53;100.00
53619;BME280;68717;53.040;18.488;2023-12-29T00:19:28;100719.53;;;6.54;100.00
53619;BME280;68717;53.040;18.488;2023-12-29T00:19:41;100717.84;;;6.53;100.00
53619;BME280;68717;53.040;18.488;2023-12-29T00:19:54;100721.38;;;6.54;100.00
53619;BME280;68717;53.040;18.488;2023-12-29T00:20:08;100727.53;;;6.54;100.00
53619;BME280;68717;53.040;18.488;2023-12-29T00:20:23;100722.22;;;6.54;100.00
53619;BME280;68717;53.040;18.488;2023-12-29T00:20:52;100720.38;;;6.55;100.00
53619;BME280;68717;53.040;18.488;2023-12-29T00:21:19;100723.19;;;6.53;100.00
53619;BME280;68717;53.040;18.488;2023-12-29T00:21:32;100716.97;;;6.53;100.00
53619;BME280;68717;53.040;18.488;2023-12-29T00:21:45;100715.28;;;6.52;100.00
53619;BME280;68717;53.040;18.488;2023-12-29T00:21:58;100716.97;;;6.53;100.00
53619;BME280;68717;53.040;18.488;2023-12-29T00:22:12;100718.81;;;6.52;100.00
53619;BME280;68717;53.040;18.488;2023-12-29T00:22:25;100720.63;;;6.52;100.00
53619;BME280;68717;53.040;18.488;2023-12-29T00:22:40;100718.94;;;6.51;100.00
53619;BME280;68717;53.040;18.488;2023-12-29T00:22:54;100720.72;;;6.50;100.00
53619;BME280;68717;53.040;18.488;2023-12-29T00:23:10;100719.88;;;6.50;100.00
53619;BME280;68717;53.040;18.488;2023-12-29T00:23:23;100714.53;;;6.50;100.00
53619;BME280;68717;53.040;18.488;2023-12-29T00:23:36;100719.13;;;6.48;100.00
53619;BME280;68717;53.040;18.488;2023-12-29T00:23:49;100720.94;;;6.47;100.00
53619;BME280;68717;53.040;18.488;2023-12-29T00:24:02;100717.44;;;6.47;100.00
53619;BME280;68717;53.040;18.488;2023-12-29T00:24:16;100718.38;;;6.46;100.00
53619;BME280;68717;53.040;18.488;2023-12-29T00:24:29;100721.03;;;6.46;100.00
53619;BME280;68717;53.040;18.488;2023-12-29T00:24:45;100723.72;;;6.46;100.00
53619;BME280;68717;53.040;18.488;2023-12-29T00:24:58;100719.34;;;6.45;100.00
53619;BME280;68717;53.040;18.488;2023-12-29T00:25:11;100722.84;;;6.45;100.00
53619;BME280;68717;53.040;18.488;2023-12-29T00:25:24;100723.81;;;6.44;100.00
53619;BME280;68717;53.040;18.488;2023-12-29T00:25:37;100725.63;;;6.44;100.00
53619;BME280;68717;53.040;18.488;2023-12-29T00:25:51;100722.97;;;6.44;100.00
53619;BME280;68717;53.040;18.488;2023-12-29T00:26:04;100722.97;;;6.44;100.00
53619;BME280;68717;53.040;18.488;2023-12-29T00:26:17;100707.09;;;6.42;100.00
53619;BME280;68717;53.040;18.488;2023-12-29T00:26:31;100718.59;;;6.43;100.00
53619;BME280;68717;53.040;18.488;2023-12-29T00:26:44;100715.94;;;6.43;100.00
53619;BME280;68717;53.040;18.488;2023-12-29T00:26:57;100718.59;;;6.43;100.00
53619;BME280;68717;53.040;18.488;2023-12-29T00:27:10;100719.53;;;6.42;100.00
53619;BME280;68717;53.040;18.488;2023-12-29T00:27:23;100714.22;;;6.42;100.00
53619;BME280;68717;53.040;18.488;2023-12-29T00:27:36;100719.53;;;6.42;100.00
53619;BME280;68717;53.040;18.488;2023-12-29T00:27:49;100722.97;;;6.44;100.00
53619;BME280;68717;53.040;18.488;2023-12-29T00:28:03;100722.13;;;6.43;100.00
53619;BME280;68717;53.040;18.488;2023-12-29T00:28:17;100711.56;;;6.42;100.00
53619;BME280;68717;53.040;18.488;2023-12-29T00:28:32;100706.22;;;6.42;100.00
53619;BME280;68717;53.040;18.488;2023-12-29T00:28:45;100716.88;;;6.42;100.00
53619;BME280;68717;53.040;18.488;2023-12-29T00:28:58;100724.88;;;6.42;100.00
53619;BME280;68717;53.040;18.488;2023-12-29T00:29:11;100712.53;;;6.41;100.00
53619;BME280;68717;53.040;18.488;2023-12-29T00:29:24;100718.69;;;6.41;100.00
53619;BME280;68717;53.040;18.488;2023-12-29T00:29:37;100718.69;;;6.41;100.00
53619;BME280;68717;53.040;18.488;2023-12-29T00:29:50;100712.63;;;6.39;100.00
53619;BME280;68717;53.040;18.488;2023-12-29T00:30:05;100707.31;;;6.39;100.00
53619;BME280;68717;53.040;18.488;2023-12-29T00:30:18;100715.28;;;6.39;100.00
53619;BME280;68717;53.040;18.488;2023-12-29T00:30:32;100702.94;;;6.38;100.00
53619;BME280;68717;53.040;18.488;2023-12-29T00:31:06;100713.59;;;6.38;100.00
53619;BME280;68717;53.040;18.488;2023-12-29T00:31:23;100710.94;;;6.38;100.00
53619;BME280;68717;53.040;18.488;2023-12-29T00:31:36;100711.88;;;6.37;100.00
53619;BME280;68717;53.040;18.488;2023-12-29T00:31:49;100710.06;;;6.38;100.00
53619;BME280;68717;53.040;18.488;2023-12-29T00:32:03;100703.91;;;6.37;100.00
53619;BME280;68717;53.040;18.488;2023-12-29T00:32:17;100704.75;;;6.38;100.00
53619;BME280;68717;53.040;18.488;2023-12-29T00:32:30;100712.72;;;6.38;100.00
53619;BME280;68717;53.040;18.488;2023-12-29T00:32:43;100709.22;;;6.37;100.00
53619;BME280;68717;53.040;18.488;2023-12-29T00:32:57;100703.03;;;6.36;100.00
53619;BME280;68717;53.040;18.488;2023-12-29T00:33:10;100700.38;;;6.36;100.00
53619;BME280;68717;53.040;18.488;2023-12-29T00:33:23;100698.66;;;6.35;100.00
53619;BME280;68717;53.040;18.488;2023-12-29T00:33:37;100696.88;;;6.36;100.00
53619;BME280;68717;53.040;18.488;2023-12-29T00:33:53;100697.81;;;6.35;100.00
53619;BME280;68717;53.040;18.488;2023-12-29T00:34:07;100696.13;;;6.34;100.00
53619;BME280;68717;53.040;18.488;2023-12-29T00:34:20;100695.28;;;6.33;100.00
53619;BME280;68717;53.040;18.488;2023-12-29T00:34:33;100689.97;;;6.33;100.00
53619;BME280;68717;53.040;18.488;2023-12-29T00:34:47;100700.63;;;6.33;100.00
53619;BME280;68717;53.040;18.488;2023-12-29T00:35:00;100692.63;;;6.33;100.00
53619;BME280;68717;53.040;18.488;2023-12-29T00:35:13;100697.06;;;6.33;100.00
53619;BME280;68717;53.040;18.488;2023-12-29T00:35:26;100696.13;;;6.34;100.00
53619;BME280;68717;53.040;18.488;2023-12-29T00:35:39;100694.41;;;6.33;100.00
53619;BME280;68717;53.040;18.488;2023-12-29T00:35:54;100703.28;;;6.33;100.00
53619;BME280;68717;53.040;18.488;2023-12-29T00:36:07;100696.22;;;6.32;100.00
53619;BME280;68717;53.040;18.488;2023-12-29T00:36:20;100697.06;;;6.33;100.00
53619;BME280;68717;53.040;18.488;2023-12-29T00:36:33;100693.56;;;6.32;100.00
53619;BME280;68717;53.040;18.488;2023-12-29T00:36:47;100698.88;;;6.32;100.00
53619;BME280;68717;53.040;18.488;2023-12-29T00:37:01;100698.88;;;6.32;100.00
53619;BME280;68717;53.040;18.488;2023-12-29T00:37:14;100690.91;;;6.32;100.00
53619;BME280;68717;53.040;18.488;2023-12-29T00:37:27;100695.38;;;6.32;100.00
53619;BME280;68717;53.040;18.488;2023-12-29T00:37:41;100690.06;;;6.32;100.00
53619;BME280;68717;53.040;18.488;2023-12-29T00:37:54;100691.88;;;6.31;100.00
53619;BME280;68717;53.040;18.488;2023-12-29T00:38:07;100685.69;;;6.31;100.00
53619;BME280;68717;53.040;18.488;2023-12-29T00:38:19;100693.56;;;6.32;100.00
53619;BME280;68717;53.040;18.488;2023-12-29T00:38:32;100690.06;;;6.32;100.00
53619;BME280;68717;53.040;18.488;2023-12-29T00:38:46;100696.22;;;6.32;100.00
53619;BME280;68717;53.040;18.488;2023-12-29T00:38:59;100691.75;;;6.33;100.00
53619;BME280;68717;53.040;18.488;2023-12-29T00:39:11;100689.22;;;6.31;100.00
53619;BME280;68717;53.040;18.488;2023-12-29T00:39:25;100687.50;;;6.30;100.00
53619;BME280;68717;53.040;18.488;2023-12-29T00:39:44;100692.72;;;6.32;100.00
53619;BME280;68717;53.040;18.488;2023-12-29T00:39:57;100688.34;;;6.31;100.00
53619;BME280;68717;53.040;18.488;2023-12-29T00:40:10;100691.88;;;6.31;100.00
53619;BME280;68717;53.040;18.488;2023-12-29T00:40:24;100692.81;;;6.30;100.00
53619;BME280;68717;53.040;18.488;2023-12-29T00:40:37;100686.66;;;6.30;100.00
53619;BME280;68717;53.040;18.488;2023-12-29T00:40:50;100698.16;;;6.30;100.00
53619;BME280;68717;53.040;18.488;2023-12-29T00:41:04;100690.16;;;6.30;100.00
53619;BME280;68717;53.040;18.488;2023-12-29T00:41:18;100688.47;;;6.29;100.00
53619;BME280;68717;53.040;18.488;2023-12-29T00:41:32;100693.78;;;6.29;100.00
53619;BME280;68717;53.040;18.488;2023-12-29T00:41:45;100698.25;;;6.29;100.00
53619;BME280;68717;53.040;18.488;2023-12-29T00:41:58;100686.75;;;6.28;100.00
53619;BME280;68717;53.040;18.488;2023-12-29T00:42:11;100692.06;;;6.28;100.00
53619;BME280;68717;53.040;18.488;2023-12-29T00:42:24;100683.25;;;6.28;100.00
53619;BME280;68717;53.040;18.488;2023-12-29T00:42:37;100689.41;;;6.28;100.00
53619;BME280;68717;53.040;18.488;2023-12-29T00:42:50;100687.72;;;6.27;100.00
53619;BME280;68717;53.040;18.488;2023-12-29T00:43:03;100681.41;;;6.28;100.00
53619;BME280;68717;53.040;18.488;2023-12-29T00:43:16;100684.09;;;6.28;100.00
53619;BME280;68717;53.040;18.488;2023-12-29T00:43:30;100686.75;;;6.28;100.00
53619;BME280;68717;53.040;18.488;2023-12-29T00:43:44;100695.72;;;6.27;100.00
53619;BME280;68717;53.040;18.488;2023-12-29T00:43:57;100686.75;;;6.28;100.00
53619;BME280;68717;53.040;18.488;2023-12-29T00:44:11;100684.09;;;6.28;100.00
53619;BME280;68717;53.040;18.488;2023-12-29T00:44:24;100679.72;;;6.27;100.00
53619;BME280;68717;53.040;18.488;2023-12-29T00:44:36;100685.06;;;6.27;100.00
53619;BME280;68717;53.040;18.488;2023-12-29T00:44:49;100690.38;;;6.27;100.00
53619;BME280;68717;53.040;18.488;2023-12-29T00:45:03;100686.00;;;6.26;100.00
53619;BME280;68717;53.040;18.488;2023-12-29T00:45:16;100684.31;;;6.25;100.00
53619;BME280;68717;53.040;18.488;2023-12-29T00:45:30;100692.28;;;6.25;100.00
53619;BME280;68717;53.040;18.488;2023-12-29T00:45:46;100683.47;;;6.25;100.00
53619;BME280;68717;53.040;18.488;2023-12-29T00:46:01;100684.41;;;6.24;100.00
53619;BME280;68717;53.040;18.488;2023-12-29T00:46:14;100679.09;;;6.24;100.00
53619;BME280;68717;53.040;18.488;2023-12-29T00:46:28;100689.72;;;6.24;100.00
53619;BME280;68717;53.040;18.488;2023-12-29T00:46:41;100680.06;;;6.23;100.00
53619;BME280;68717;53.040;18.488;2023-12-29T00:46:54;100680.91;;;6.23;100.00
53619;BME280;68717;53.040;18.488;2023-12-29T00:47:06;100682.72;;;6.23;100.00
53619;BME280;68717;53.040;18.488;2023-12-29T00:47:20;100679.19;;;6.22;100.00
53619;BME280;68717;53.040;18.488;2023-12-29T00:47:36;100688.13;;;6.21;100.00
53619;BME280;68717;53.040;18.488;2023-12-29T00:47:49;100685.47;;;6.21;100.00
53619;BME280;68717;53.040;18.488;2023-12-29T00:48:04;100690.81;;;6.21;100.00
53619;BME280;68717;53.040;18.488;2023-12-29T00:48:18;100686.41;;;6.20;100.00
53619;BME280;68717;53.040;18.488;2023-12-29T00:48:31;100694.41;;;6.20;100.00
53619;BME280;68717;53.040;18.488;2023-12-29T00:48:44;100686.41;;;6.20;100.00
53619;BME280;68717;53.040;18.488;2023-12-29T00:48:59;100687.28;;;6.21;100.00
53619;BME280;68717;53.040;18.488;2023-12-29T00:49:13;100694.41;;;6.20;100.00
53619;BME280;68717;53.040;18.488;2023-12-29T00:49:27;100691.75;;;6.20;100.00
53619;BME280;68717;53.040;18.488;2023-12-29T00:49:40;100691.75;;;6.20;100.00
53619;BME280;68717;53.040;18.488;2023-12-29T00:49:53;100691.75;;;6.20;100.00
53619;BME280;68717;53.040;18.488;2023-12-29T00:50:07;100683.75;;;6.20;100.00
53619;BME280;68717;53.040;18.488;2023-12-29T00:50:20;100698.88;;;6.20;100.00
53619;BME280;68717;53.040;18.488;2023-12-29T00:50:33;100689.09;;;6.20;100.00
53619;BME280;68717;53.040;18.488;2023-12-29T00:50:46;100692.72;;;6.19;100.00
53619;BME280;68717;53.040;18.488;2023-12-29T00:51:00;100690.06;;;6.19;100.00
53619;BME280;68717;53.040;18.488;2023-12-29T00:51:13;100688.34;;;6.18;100.00
53619;BME280;68717;53.040;18.488;2023-12-29T00:51:26;100691.00;;;6.18;100.00
53619;BME280;68717;53.040;18.488;2023-12-29T00:51:40;100693.78;;;6.17;100.00
53619;BME280;68717;53.040;18.488;2023-12-29T00:51:53;100689.31;;;6.17;100.00
53619;BME280;68717;53.040;18.488;2023-12-29T00:52:06;100691.88;;;6.19;100.00
53619;BME280;68717;53.040;18.488;2023-12-29T00:52:20;100693.66;;;6.18;100.00
53619;BME280;68717;53.040;18.488;2023-12-29T00:52:33;100686.53;;;6.19;100.00
53619;BME280;68717;53.040;18.488;2023-12-29T00:52:49;100691.88;;;6.19;100.00
53619;BME280;68717;53.040;18.488;2023-12-29T00:53:02;100691.97;;;6.17;100.00
53619;BME280;68717;53.040;18.488;2023-12-29T00:53:15;100694.63;;;6.17;100.00
53619;BME280;68717;53.040;18.488;2023-12-29T00:53:28;100690.16;;;6.18;100.00
53619;BME280;68717;53.040;18.488;2023-12-29T00:53:41;100700.91;;;6.16;100.00
53619;BME280;68717;53.040;18.488;2023-12-29T00:53:55;100698.22;;;6.16;100.00
53619;BME280;68717;53.040;18.488;2023-12-29T00:54:08;100692.06;;;6.15;100.00
53619;BME280;68717;53.040;18.488;2023-12-29T00:54:21;100699.22;;;6.15;100.00
53619;BME280;68717;53.040;18.488;2023-12-29T00:54:35;100691.22;;;6.15;100.00
53619;BME280;68717;53.040;18.488;2023-12-29T00:54:49;100697.50;;;6.14;100.00
53619;BME280;68717;53.040;18.488;2023-12-29T00:55:03;100695.69;;;6.14;100.00
53619;BME280;68717;53.040;18.488;2023-12-29T00:55:16;100699.22;;;6.15;100.00
53619;BME280;68717;53.040;18.488;2023-12-29T00:55:30;100686.13;;;6.12;100.00
53619;BME280;68717;53.040;18.488;2023-12-29T00:55:43;100699.28;;;6.13;100.00
53619;BME280;68717;53.040;18.488;2023-12-29T00:55:56;100690.47;;;6.13;100.00
53619;BME280;68717;53.040;18.488;2023-12-29T00:56:11;100691.31;;;6.13;100.00
53619;BME280;68717;53.040;18.488;2023-12-29T00:56:24;100688.66;;;6.13;100.00
53619;BME280;68717;53.040;18.488;2023-12-29T00:56:38;100687.81;;;6.13;100.00
53619;BME280;68717;53.040;18.488;2023-12-29T00:56:51;100687.81;;;6.13;100.00
53619;BME280;68717;53.040;18.488;2023-12-29T00:57:04;100686.13;;;6.12;100.00
53619;BME280;68717;53.040;18.488;2023-12-29T00:57:17;100686.13;;;6.12;100.00
53619;BME280;68717;53.040;18.488;2023-12-29T00:57:31;100684.41;;;6.11;100.00
53619;BME280;68717;53.040;18.488;2023-12-29T00:57:44;100686.13;;;6.12;100.00
53619;BME280;68717;53.040;18.488;2023-12-29T00:57:57;100682.59;;;6.11;100.00
53619;BME280;68717;53.040;18.488;2023-12-29T00:58:10;100681.75;;;6.11;100.00
53619;BME280;68717;53.040;18.488;2023-12-29T00:58:25;100679.06;;;6.11;100.00
53619;BME280;68717;53.040;18.488;2023-12-29T00:58:38;100680.03;;;6.10;100.00
53619;BME280;68717;53.040;18.488;2023-12-29T00:58:51;100673.75;;;6.11;100.00
53619;BME280;68717;53.040;18.488;2023-12-29T00:59:04;100679.06;;;6.11;100.00
53619;BME280;68717;53.040;18.488;2023-12-29T00:59:19;100672.91;;;6.10;100.00
53619;BME280;68717;53.040;18.488;2023-12-29T00:59:32;100679.06;;;6.11;100.00
53619;BME280;68717;53.040;18.488;2023-12-29T00:59:46;100681.75;;;6.11;100.00
53619;BME280;68717;53.040;18.488;2023-12-29T01:00:01;100681.75;;;6.11;100.00
53619;BME280;68717;53.040;18.488;2023-12-29T01:00:15;100677.38;;;6.10;100.00
53619;BME280;68717;53.040;18.488;2023-12-29T01:00:28;100677.38;;;6.10;100.00
53619;BME280;68717;53.040;18.488;2023-12-29T01:00:41;100674.72;;;6.10;100.00
53619;BME280;68717;53.040;18.488;2023-12-29T01:00:55;100674.72;;;6.10;100.00
53619;BME280;68717;53.040;18.488;2023-12-29T01:01:09;100675.56;;;6.10;100.00
53619;BME280;68717;53.040;18.488;2023-12-29T01:01:24;100675.56;;;6.10;100.00
53619;BME280;68717;53.040;18.488;2023-12-29T01:01:37;100676.41;;;6.11;100.00
53619;BME280;68717;53.040;18.488;2023-12-29T01:01:50;100667.59;;;6.10;100.00
53619;BME280;68717;53.040;18.488;2023-12-29T01:02:04;100667.59;;;6.10;100.00
53619;BME280;68717;53.040;18.488;2023-12-29T01:02:18;100673.75;;;6.11;100.00
53619;BME280;68717;53.040;18.488;2023-12-29T01:02:31;100674.59;;;6.11;100.00
53619;BME280;68717;53.040;18.488;2023-12-29T01:02:43;100670.34;;;6.09;100.00
53619;BME280;68717;53.040;18.488;2023-12-29T01:02:57;100672.06;;;6.10;100.00
53619;BME280;68717;53.040;18.488;2023-12-29T01:03:10;100665.88;;;6.09;100.00
53619;BME280;68717;53.040;18.488;2023-12-29T01:03:23;100667.69;;;6.09;100.00
53619;BME280;68717;53.040;18.488;2023-12-29T01:03:39;100668.44;;;6.11;100.00
53619;BME280;68717;53.040;18.488;2023-12-29T01:03:52;100671.09;;;6.11;100.00
53619;BME280;68717;53.040;18.488;2023-12-29T01:04:08;100672.06;;;6.10;100.00
53619;BME280;68717;53.040;18.488;2023-12-29T01:04:22;100671.19;;;6.09;100.00
53619;BME280;68717;53.040;18.488;2023-12-29T01:04:37;100665.03;;;6.09;100.00
53619;BME280;68717;53.040;18.488;2023-12-29T01:04:50;100665.03;;;6.09;100.00
53619;BME280;68717;53.040;18.488;2023-12-29T01:05:04;100662.34;;;6.09;100.00
53619;BME280;68717;53.040;18.488;2023-12-29T01:05:17;100659.69;;;6.09;100.00
53619;BME280;68717;53.040;18.488;2023-12-29T01:05:31;100666.84;;;6.08;100.00
53619;BME280;68717;53.040;18.488;2023-12-29T01:05:44;100665.03;;;6.09;100.00
53619;BME280;68717;53.040;18.488;2023-12-29T01:05:57;100663.34;;;6.08;100.00
53619;BME280;68717;53.040;18.488;2023-12-29T01:06:10;100670.44;;;6.07;100.00
53619;BME280;68717;53.040;18.488;2023-12-29T01:06:24;100667.78;;;6.07;100.00
53619;BME280;68717;53.040;18.488;2023-12-29T01:06:37;100673.09;;;6.07;100.00
53619;BME280;68717;53.040;18.488;2023-12-29T01:06:50;100672.25;;;6.07;100.00
53619;BME280;68717;53.040;18.488;2023-12-29T01:07:03;100666.09;;;6.06;100.00
53619;BME280;68717;53.040;18.488;2023-12-29T01:07:16;100667.06;;;6.05;100.00
53619;BME280;68717;53.040;18.488;2023-12-29T01:07:29;100659.91;;;6.06;100.00
53619;BME280;68717;53.040;18.488;2023-12-29T01:07:42;100670.56;;;6.06;100.00
53619;BME280;68717;53.040;18.488;2023-12-29T01:07:55;100670.56;;;6.06;100.00
53619;BME280;68717;53.040;18.488;2023-12-29T01:08:09;100665.25;;;6.06;100.00
53619;BME280;68717;53.040;18.488;2023-12-29T01:08:22;100670.56;;;6.06;100.00
53619;BME280;68717;53.040;18.488;2023-12-29T01:08:36;100669.72;;;6.05;100.00
53619;BME280;68717;53.040;18.488;2023-12-29T01:08:49;100663.53;;;6.05;100.00
53619;BME280;68717;53.040;18.488;2023-12-29T01:09:03;100674.16;;;6.05;100.00
53619;BME280;68717;53.040;18.488;2023-12-29T01:09:16;100668.00;;;6.04;100.00
53619;BME280;68717;53.040;18.488;2023-12-29T01:09:29;100680.47;;;6.04;100.00
53619;BME280;68717;53.040;18.488;2023-12-29T01:09:41;100674.16;;;6.05;100.00
53619;BME280;68717;53.040;18.488;2023-12-29T01:09:55;100667.16;;;6.04;100.00
53619;BME280;68717;53.040;18.488;2023-12-29T01:10:08;100669.81;;;6.04;100.00
53619;BME280;68717;53.040;18.488;2023-12-29T01:10:23;100667.16;;;6.04;100.00
53619;BME280;68717;53.040;18.488;2023-12-29T01:10:36;100671.63;;;6.03;100.00
53619;BME280;68717;53.040;18.488;2023-12-29T01:10:49;100675.13;;;6.04;100.00
53619;BME280;68717;53.040;18.488;2023-12-29T01:11:02;100665.44;;;6.03;100.00
53619;BME280;68717;53.040;18.488;2023-12-29T01:11:15;100674.38;;;6.02;100.00
53619;BME280;68717;53.040;18.488;2023-12-29T01:11:27;100679.72;;;6.02;100.00